Time;durP1;ratioP1;P1;durP2;ratioP2;P2;SDS_P1;SDS_P2;PMS_P1;PMS_P2;Temp;Humidity;BMP_temperature;BMP_pressure;BME280_temperature;BME280_humidity;BME280_pressure;Samples;Min_cycle;Max_cycle;Signal;HPM_P1;HPM_P2
2023/08/19 00:01:05;;;;;;;26.95;24.38;;;;;;;23.18;98.42;100951.59;3617390;39;20158;-66
2023/08/19 00:03:32;;;;;;;28.13;25.23;;;;;;;23.27;98.12;100967.00;3614750;39;20092;-66
2023/08/19 00:06:06;;;;;;;25.65;23.15;;;;;;;23.28;97.52;100967.84;3612956;39;20092;-66
2023/08/19 00:08:33;;;;;;;25.75;23.23;;;;;;;23.29;97.16;100948.50;3613904;39;20047;-66
2023/08/19 00:10:58;;;;;;;27.10;24.40;;;;;;;23.30;97.45;100954.81;3617793;39;20110;-66
2023/08/19 00:13:24;;;;;;;25.35;22.88;;;;;;;23.23;97.32;100940.97;3612260;39;20065;-66
2023/08/19 00:15:50;;;;;;;25.25;22.75;;;;;;;23.27;97.25;100955.19;3613728;39;20069;-66
2023/08/19 00:18:16;;;;;;;25.02;22.70;;;;;;;23.26;97.26;100954.31;3613802;39;20079;-66
2023/08/19 00:20:42;;;;;;;25.40;22.83;;;;;;;23.29;96.92;100961.34;3615898;39;20368;-66
2023/08/19 00:23:08;;;;;;;26.35;23.75;;;;;;;23.27;97.64;100956.03;3614997;39;20107;-66
2023/08/19 00:25:33;;;;;;;26.15;23.55;;;;;;;23.23;96.80;100959.31;3613605;39;20063;-66
2023/08/19 00:27:59;;;;;;;26.52;23.85;;;;;;;23.25;97.53;100959.97;3614833;39;20051;-66
2023/08/19 00:30:25;;;;;;;28.58;25.73;;;;;;;23.24;97.40;100955.53;3613005;39;20050;-66
2023/08/19 00:32:51;;;;;;;27.85;25.17;;;;;;;23.24;97.83;100955.53;3614174;39;20066;-66
2023/08/19 00:35:17;;;;;;;27.65;24.95;;;;;;;23.25;97.78;100958.09;3614670;39;20070;-66
2023/08/19 00:37:43;;;;;;;25.90;23.23;;;;;;;23.26;98.08;100958.97;3617704;39;20274;-66
2023/08/19 00:40:14;;;;;;;24.83;22.38;;;;;;;23.25;98.29;100955.38;3604058;39;20380;-67
2023/08/19 00:42:41;;;;;;;26.05;23.00;;;;;;;23.26;98.05;100959.81;3613696;39;20059;-67
2023/08/19 00:45:08;;;;;;;25.27;22.63;;;;;;;23.28;97.67;100967.84;3613270;39;20489;-67
2023/08/19 00:47:39;;;;;;;24.27;21.92;;;;;;;23.13;97.22;100937.56;3616307;39;20055;-67
2023/08/19 00:50:10;;;;;;;24.08;21.73;;;;;;;23.01;97.10;100920.59;3611602;39;20066;-67
2023/08/19 00:52:38;;;;;;;26.67;24.23;;;;;;;22.87;97.00;100891.97;3613126;39;20051;-66
2023/08/19 00:55:07;;;;;;;26.38;23.80;;;;;;;23.12;97.78;100938.56;3615381;39;20054;-67
2023/08/19 00:57:36;;;;;;;28.13;25.05;;;;;;;23.25;97.49;100954.47;3612277;39;20054;-67
2023/08/19 01:00:04;;;;;;;24.55;22.15;;;;;;;23.24;97.84;100950.03;3614956;39;20042;-67
2023/08/19 01:02:30;;;;;;;27.98;24.98;;;;;;;23.23;97.59;100949.19;3612592;39;20055;-68
2023/08/19 01:04:57;;;;;;;27.77;25.08;;;;;;;23.02;98.10;100913.22;3618396;39;20069;-67
2023/08/19 01:08:00;;;;;;;26.42;23.73;;;;;;;23.19;98.02;100941.50;3612812;39;20057;-67
2023/08/19 01:10:56;;;;;;;26.03;23.40;;;;;;;23.19;98.55;100936.84;3610070;39;20062;-67
2023/08/19 01:13:32;;;;;;;25.20;22.70;;;;;;;23.05;98.29;100904.66;3613396;39;20059;-67
2023/08/19 01:16:13;;;;;;;24.20;21.73;;;;;;;23.06;98.21;100909.97;3612922;39;20051;-67
2023/08/19 01:18:40;;;;;;;24.83;22.33;;;;;;;23.23;98.50;100938.22;3615609;39;20064;-67
2023/08/19 01:21:08;;;;;;;26.80;24.27;;;;;;;23.26;97.98;100935.13;3615448;39;20050;-67
2023/08/19 01:23:42;;;;;;;24.88;22.38;;;;;;;23.29;97.98;100937.50;3613564;39;20053;-67
2023/08/19 01:26:08;;;;;;;23.27;20.98;;;;;;;23.29;97.88;100932.03;3612713;39;20075;-67
2023/08/19 01:28:34;;;;;;;22.13;20.02;;;;;;;23.31;97.50;100932.72;3613376;39;20304;-66
2023/08/19 01:31:00;;;;;;;21.10;19.10;;;;;;;23.33;97.81;100933.38;3612482;39;20082;-67
2023/08/19 01:33:26;;;;;;;21.70;19.50;;;;;;;23.34;97.25;100924.16;3613000;39;20081;-67
2023/08/19 01:35:57;;;;;;;21.48;19.45;;;;;;;23.35;97.19;100917.63;3612910;39;20058;-67
2023/08/19 01:38:35;;;;;;;20.45;18.45;;;;;;;23.34;97.14;100904.94;3615004;39;20051;-68
2023/08/19 01:41:04;;;;;;;19.77;18.05;;;;;;;23.35;96.99;100903.91;3613357;39;20057;-68
2023/08/19 01:43:32;;;;;;;20.25;18.33;;;;;;;23.34;96.83;100899.44;3615851;39;20398;-67
2023/08/19 01:45:59;;;;;;;19.52;17.63;;;;;;;23.38;96.72;100909.03;3614083;39;20046;-66
2023/08/19 01:48:25;;;;;;;19.10;17.30;;;;;;;23.38;96.48;100898.06;3617557;39;20266;-67
2023/08/19 01:50:50;;;;;;;19.00;17.00;;;;;;;23.41;96.32;100907.81;3616130;39;20116;-67
2023/08/19 01:53:16;;;;;;;18.38;16.45;;;;;;;23.40;96.17;100900.59;3613051;39;20063;-67
2023/08/19 01:55:41;;;;;;;17.58;16.05;;;;;;;23.43;96.08;100899.41;3616295;39;20312;-67
2023/08/19 01:58:07;;;;;;;17.63;15.85;;;;;;;23.43;95.92;100900.25;3615228;39;20062;-67
2023/08/19 02:00:33;;;;;;;16.92;15.30;;;;;;;23.43;96.22;100904.91;3615881;39;20057;-67
2023/08/19 02:02:59;;;;;;;20.60;18.60;;;;;;;23.43;95.28;100899.41;3615610;39;20042;-67
2023/08/19 02:05:25;;;;;;;23.17;21.08;;;;;;;23.44;95.76;100901.09;3614432;39;20050;-67
2023/08/19 02:07:51;;;;;;;20.40;18.30;;;;;;;23.42;95.78;100893.06;3614104;39;20534;-67
2023/08/19 02:10:17;;;;;;;22.88;20.77;;;;;;;23.42;95.46;100893.06;3619391;39;20059;-67
2023/08/19 02:12:42;;;;;;;18.70;17.00;;;;;;;23.39;95.29;100890.69;3603866;39;20050;-67
2023/08/19 02:15:08;;;;;;;17.10;15.50;;;;;;;23.35;95.94;100887.44;3614419;39;20516;-67
2023/08/19 02:17:34;;;;;;;14.75;13.43;;;;;;;23.36;95.31;100889.13;3616875;39;20049;-67
2023/08/19 02:20:00;;;;;;;15.13;13.73;;;;;;;23.33;95.80;100884.00;3616155;39;20263;-66
2023/08/19 02:22:25;;;;;;;15.30;13.73;;;;;;;23.34;95.82;100880.25;3617977;39;20095;-67
2023/08/19 02:24:51;;;;;;;14.88;13.45;;;;;;;23.35;95.27;100881.09;3616964;39;20046;-67
2023/08/19 02:27:16;;;;;;;16.23;13.32;;;;;;;23.19;95.69;100853.72;3609284;39;20075;-67
2023/08/19 02:29:42;;;;;;;14.48;13.07;;;;;;;23.33;95.54;100878.50;3615626;39;20054;-67
2023/08/19 02:32:08;;;;;;;14.77;13.48;;;;;;;23.32;95.56;100871.34;3616700;39;20069;-66
2023/08/19 02:34:33;;;;;;;14.02;12.70;;;;;;;23.31;95.78;100874.22;3614070;39;20062;-66
2023/08/19 02:36:59;;;;;;;14.38;13.07;;;;;;;23.22;95.59;100854.22;3616007;39;20054;-66
2023/08/19 02:39:24;;;;;;;14.45;13.15;;;;;;;23.29;95.80;100882.66;3619236;39;20062;-66
2023/08/19 02:41:50;;;;;;;15.57;13.88;;;;;;;23.32;95.18;100875.97;3618908;39;20377;-66
2023/08/19 02:44:16;;;;;;;18.92;17.00;;;;;;;23.29;95.57;100859.88;3617588;39;20094;-66
2023/08/19 02:46:41;;;;;;;15.05;13.30;;;;;;;23.33;94.74;100873.03;3616186;39;20680;-66
2023/08/19 02:49:07;;;;;;;13.68;12.45;;;;;;;23.30;94.80;100856.06;3614313;39;21803;-66
2023/08/19 02:51:32;;;;;;;13.10;11.88;;;;;;;23.36;94.01;100872.69;3615971;39;20059;-66
2023/08/19 02:53:58;;;;;;;13.48;12.23;;;;;;;23.32;93.39;100852.13;3616353;39;20477;-65
2023/08/19 02:56:24;;;;;;;12.52;11.32;;;;;;;23.43;92.73;100861.00;3617599;39;20035;-65
2023/08/19 02:58:50;;;;;;;13.05;11.95;;;;;;;23.48;92.27;100864.06;3613614;39;20062;-65
2023/08/19 03:01:16;;;;;;;14.63;13.13;;;;;;;23.50;92.12;100857.38;3618065;39;20404;-65
2023/08/19 03:03:42;;;;;;;16.17;14.50;;;;;;;23.47;91.89;100848.63;3618288;39;20444;-65
2023/08/19 03:06:07;;;;;;;14.63;13.05;;;;;;;23.55;91.38;100860.41;3615013;39;20124;-65
2023/08/19 03:08:33;;;;;;;13.52;12.10;;;;;;;23.57;91.14;100869.34;3613836;39;21394;-65
2023/08/19 03:10:58;;;;;;;14.23;12.32;;;;;;;23.59;89.92;100871.88;3616214;39;20050;-65
2023/08/19 03:13:24;;;;;;;12.98;11.60;;;;;;;23.61;90.37;100867.09;3615234;39;20360;-65
2023/08/19 03:15:50;;;;;;;13.68;12.30;;;;;;;23.63;89.76;100865.03;3617067;39;20050;-66
2023/08/19 03:18:15;;;;;;;12.85;11.57;;;;;;;23.64;89.80;100858.50;3615098;39;20085;-65
2023/08/19 03:20:42;;;;;;;11.55;10.43;;;;;;;23.37;90.01;100815.91;3618484;39;20090;-66
2023/08/19 03:23:08;;;;;;;11.65;10.50;;;;;;;23.62;89.66;100860.56;3616803;39;20086;-66
2023/08/19 03:25:33;;;;;;;11.63;10.52;;;;;;;23.62;89.60;100852.31;3616571;39;20050;-66
2023/08/19 03:27:59;;;;;;;11.13;10.00;;;;;;;23.63;89.89;100856.81;3617550;39;20068;-65
2023/08/19 03:30:25;;;;;;;12.38;10.57;;;;;;;23.64;89.62;100853.88;3616874;39;20108;-66
2023/08/19 03:32:51;;;;;;;13.38;12.18;;;;;;;23.64;89.39;100853.00;3620250;39;20115;-66
2023/08/19 03:35:16;;;;;;;11.32;10.23;;;;;;;23.64;88.98;100855.75;3616064;39;20074;-66
2023/08/19 03:37:42;;;;;;;12.65;11.50;;;;;;;23.65;89.31;100865.69;3617301;39;20606;-66
2023/08/19 03:40:09;;;;;;;12.43;11.23;;;;;;;23.60;88.73;100852.53;3612580;39;20058;-66
2023/08/19 03:42:34;;;;;;;13.05;11.38;;;;;;;23.67;89.43;100865.53;3616054;39;20054;-66
2023/08/19 03:45:00;;;;;;;11.48;10.30;;;;;;;23.57;89.56;100852.88;3615205;39;20058;-66
2023/08/19 03:47:25;;;;;;;12.40;11.18;;;;;;;23.60;89.89;100860.75;3615277;39;20066;-66
2023/08/19 03:49:51;;;;;;;11.10;10.02;;;;;;;23.59;90.02;100861.75;3614346;39;20059;-66
2023/08/19 03:52:17;;;;;;;11.43;10.23;;;;;;;23.56;89.97;100858.53;3614771;39;20059;-66
2023/08/19 03:54:43;;;;;;;11.25;9.68;;;;;;;23.50;90.70;100856.50;3614876;39;20083;-67
2023/08/19 03:57:08;;;;;;;11.98;10.02;;;;;;;23.50;90.37;100860.13;3614233;39;20054;-66
2023/08/19 03:59:34;;;;;;;10.75;9.75;;;;;;;23.49;90.58;100866.63;3615233;39;20085;-67
2023/08/19 04:02:00;;;;;;;10.93;9.35;;;;;;;23.51;89.91;100863.72;3615864;39;20110;-67
2023/08/19 04:04:25;;;;;;;10.35;9.13;;;;;;;23.51;88.50;100864.56;3616639;39;20055;-67
2023/08/19 04:06:51;;;;;;;10.63;9.63;;;;;;;23.53;88.79;100867.13;3613619;39;20098;-66
2023/08/19 04:09:16;;;;;;;11.27;10.10;;;;;;;23.53;88.42;100867.13;3616958;39;20062;-66
2023/08/19 04:11:42;;;;;;;10.00;8.95;;;;;;;23.55;88.12;100870.56;3619291;39;20090;-66
2023/08/19 04:14:08;;;;;;;9.70;8.80;;;;;;;23.49;88.41;100857.53;3607632;39;20058;-67
2023/08/19 04:16:37;;;;;;;10.38;8.73;;;;;;;23.49;87.35;100854.78;3616784;39;22354;-66
2023/08/19 04:19:02;;;;;;;10.02;9.10;;;;;;;23.59;88.10;100869.16;3614502;39;20078;-68
2023/08/19 04:21:28;;;;;;;9.57;8.52;;;;;;;23.60;88.11;100874.47;3615632;39;20358;-68
2023/08/19 04:23:54;;;;;;;13.15;9.10;;;;;;;23.59;87.29;100869.16;3615633;39;20047;-68
2023/08/19 04:26:19;;;;;;;8.95;8.07;;;;;;;23.58;87.54;100871.03;3613285;39;20066;-68
2023/08/19 04:28:45;;;;;;;9.10;8.27;;;;;;;23.58;87.91;100875.69;3617003;39;20061;-68
2023/08/19 04:31:12;;;;;;;9.55;8.75;;;;;;;23.54;88.46;100877.94;3614366;39;20058;-67
2023/08/19 04:33:38;;;;;;;9.80;8.80;;;;;;;23.50;88.99;100873.84;3614351;39;20124;-68
2023/08/19 04:36:04;;;;;;;14.13;10.68;;;;;;;23.48;88.59;100869.56;3614117;39;20104;-68
2023/08/19 04:38:31;;;;;;;11.18;9.88;;;;;;;23.32;87.50;100857.63;3617417;39;20058;-67
2023/08/19 04:41:00;;;;;;;9.68;8.70;;;;;;;23.52;87.71;100876.38;3613039;39;20389;-67
2023/08/19 04:43:27;;;;;;;10.10;7.95;;;;;;;23.36;87.35;100850.72;3613088;39;20050;-68
2023/08/19 04:45:54;;;;;;;9.55;7.78;;;;;;;23.54;87.72;100879.81;3615195;39;20159;-68
2023/08/19 04:48:21;;;;;;;8.55;7.57;;;;;;;23.39;87.41;100858.59;3616316;39;20393;-67
2023/08/19 04:50:49;;;;;;;10.20;7.82;;;;;;;23.56;87.38;100888.72;3612723;39;20295;-67
2023/08/19 04:53:14;;;;;;;9.15;7.68;;;;;;;23.57;86.30;100879.47;3614884;39;20723;-67
2023/08/19 04:55:40;;;;;;;8.13;7.32;;;;;;;23.61;85.99;100875.31;3614424;39;20054;-67
2023/08/19 04:58:05;;;;;;;11.60;8.48;;;;;;;23.66;85.79;100878.41;3613941;39;20053;-67
2023/08/19 05:00:31;;;;;;;10.95;9.80;;;;;;;23.68;85.68;100879.06;3608576;39;20055;-67
2023/08/19 05:02:57;;;;;;;11.57;8.07;;;;;;;23.71;85.45;100875.13;3616792;39;20050;-67
2023/08/19 05:05:23;;;;;;;7.93;7.15;;;;;;;23.73;85.06;100881.31;3618099;39;20054;-67
2023/08/19 05:07:48;;;;;;;7.82;7.13;;;;;;;23.71;84.86;100873.25;3612993;39;20050;-67
2023/08/19 05:10:14;;;;;;;7.93;7.05;;;;;;;23.77;83.95;100886.25;3616426;39;20385;-67
2023/08/19 05:12:39;;;;;;;7.85;7.15;;;;;;;23.79;84.73;100884.19;3616137;39;20054;-68
2023/08/19 05:15:06;;;;;;;8.75;7.15;;;;;;;23.77;84.75;100878.00;3612346;39;20436;-67
2023/08/19 05:17:32;;;;;;;7.30;6.60;;;;;;;23.83;84.05;100882.78;3617143;39;20055;-67
2023/08/19 05:19:58;;;;;;;7.45;6.75;;;;;;;23.85;84.04;100888.97;3613597;39;20049;-67
2023/08/19 05:22:23;;;;;;;8.13;6.47;;;;;;;23.89;84.33;100897.69;3614204;39;20065;-67
2023/08/19 05:24:49;;;;;;;7.82;6.75;;;;;;;23.92;83.33;100889.09;3618649;39;20057;-67
2023/08/19 05:27:15;;;;;;;9.68;6.82;;;;;;;23.94;83.64;100898.00;3606412;39;20070;-67
2023/08/19 05:29:41;;;;;;;7.28;6.50;;;;;;;23.93;83.49;100895.44;3612864;39;20086;-68
2023/08/19 05:32:07;;;;;;;7.10;6.47;;;;;;;23.99;83.05;100894.72;3614611;39;20050;-67
2023/08/19 05:34:33;;;;;;;7.35;6.40;;;;;;;24.01;83.61;100893.50;3615171;39;20070;-68
2023/08/19 05:36:59;;;;;;;11.45;6.63;;;;;;;24.03;83.41;100896.06;3613048;39;20355;-68
2023/08/19 05:39:25;;;;;;;7.85;6.53;;;;;;;24.02;83.89;100894.34;3613208;39;20054;-68
2023/08/19 05:41:51;;;;;;;9.55;6.68;;;;;;;24.01;83.20;100885.28;3615494;39;20084;-68
2023/08/19 05:44:16;;;;;;;7.13;6.38;;;;;;;24.02;82.62;100900.69;3614866;39;20059;-68
2023/08/19 05:46:42;;;;;;;7.50;6.78;;;;;;;24.04;83.67;100906.00;3616505;39;20062;-68
2023/08/19 05:49:07;;;;;;;7.13;6.43;;;;;;;24.04;82.47;100903.25;3611275;39;20062;-68
2023/08/19 05:51:33;;;;;;;7.75;6.65;;;;;;;24.07;82.41;100901.03;3615183;39;20053;-68
2023/08/19 05:54:01;;;;;;;8.70;6.45;;;;;;;24.10;81.78;100899.78;3612949;39;20057;-67
2023/08/19 05:56:27;;;;;;;7.32;6.00;;;;;;;24.12;82.25;100910.59;3616053;39;20414;-68
2023/08/19 05:58:54;;;;;;;7.70;6.43;;;;;;;24.14;82.16;100903.03;3612244;39;20114;-67
2023/08/19 06:01:19;;;;;;;9.95;6.70;;;;;;;24.18;81.38;100915.38;3614005;39;20474;-67
2023/08/19 06:03:45;;;;;;;8.73;6.68;;;;;;;24.20;82.37;100914.16;3610332;39;20063;-68
2023/08/19 06:06:10;;;;;;;6.85;6.18;;;;;;;24.19;81.96;100925.31;3614410;39;20067;-68
2023/08/19 06:08:36;;;;;;;10.88;6.65;;;;;;;24.22;83.28;100917.56;3615904;39;20054;-68
2023/08/19 06:11:06;;;;;;;11.30;5.97;;;;;;;24.02;83.02;100883.38;3606332;39;20297;-68
2023/08/19 06:13:37;;;;;;;9.70;6.57;;;;;;;24.23;81.70;100919.28;3620739;39;20046;-68
2023/08/19 06:16:04;;;;;;;7.55;6.32;;;;;;;24.23;83.13;100916.53;3618028;39;20154;-68
2023/08/19 06:18:32;;;;;;;8.50;5.93;;;;;;;24.28;82.52;100925.06;3616582;39;20096;-67
2023/08/19 06:20:58;;;;;;;7.22;6.05;;;;;;;24.28;82.47;100916.84;3614890;39;20070;-68
2023/08/19 06:23:24;;;;;;;6.72;6.13;;;;;;;24.30;82.78;100936.75;3616658;39;20257;-68
2023/08/19 06:25:52;;;;;;;7.00;6.18;;;;;;;24.32;82.47;100934.66;3615857;39;20062;-67
2023/08/19 06:28:20;;;;;;;6.50;5.85;;;;;;;24.37;81.88;100933.28;3618438;39;20054;-67
2023/08/19 06:30:48;;;;;;;8.43;6.15;;;;;;;24.43;81.57;100940.81;3604904;39;20069;-68
2023/08/19 06:33:15;;;;;;;9.32;6.20;;;;;;;24.47;81.08;100942.16;3615354;39;20401;-67
2023/08/19 06:35:48;;;;;;;9.90;6.72;;;;;;;24.54;81.02;100940.38;3617967;39;20400;-67
2023/08/19 06:38:20;;;;;;;8.02;6.35;;;;;;;24.64;80.92;100949.22;3615041;39;20131;-68
2023/08/19 06:41:10;;;;;;;7.82;6.00;;;;;;;24.72;80.67;100956.56;3618232;39;20079;-66
2023/08/19 06:43:38;;;;;;;6.88;6.20;;;;;;;24.81;80.23;100965.63;3615408;39;20051;-65
2023/08/19 06:46:06;;;;;;;7.25;6.20;;;;;;;24.87;78.05;100959.38;3614211;39;20194;-66
2023/08/19 06:48:34;;;;;;;8.55;5.90;;;;;;;24.91;77.39;100972.56;3618861;39;20114;-65
2023/08/19 06:51:03;;;;;;;9.35;5.82;;;;;;;24.99;77.06;100968.88;3615420;39;20058;-65
2023/08/19 06:53:29;;;;;;;7.38;5.68;;;;;;;25.01;76.40;100967.66;3615607;39;20479;-65
2023/08/19 06:56:13;;;;;;;7.68;5.75;;;;;;;25.09;76.04;100971.38;3604276;39;20094;-66
2023/08/19 06:58:51;;;;;;;7.15;5.63;;;;;;;25.11;76.15;100978.38;3614115;39;20067;-66
2023/08/19 07:01:24;;;;;;;7.10;5.80;;;;;;;25.11;76.43;100972.03;3616788;39;20055;-66
2023/08/19 07:03:52;;;;;;;9.90;6.05;;;;;;;25.11;76.12;100978.38;3616336;39;20315;-66
2023/08/19 07:06:21;;;;;;;6.57;5.88;;;;;;;25.09;75.64;100974.13;3608020;39;20055;-66
2023/08/19 07:08:47;;;;;;;7.45;6.15;;;;;;;25.09;76.61;100968.63;3615846;39;20058;-66
2023/08/19 07:11:15;;;;;;;8.75;6.22;;;;;;;25.12;77.18;100974.66;3616057;39;20039;-66
2023/08/19 07:13:42;;;;;;;7.30;6.20;;;;;;;25.29;76.65;100980.00;3615104;39;20058;-66
2023/08/19 07:16:12;;;;;;;9.50;5.95;;;;;;;25.44;77.40;100984.47;3618822;39;20062;-66
2023/08/19 07:18:43;;;;;;;9.57;6.47;;;;;;;25.60;75.52;100982.59;3613491;39;20058;-66
2023/08/19 07:21:15;;;;;;;8.82;6.32;;;;;;;25.79;75.41;100982.00;3615072;39;20057;-66
2023/08/19 07:23:45;;;;;;;6.57;5.78;;;;;;;25.98;73.86;100982.50;3615973;39;20062;-66
2023/08/19 07:26:11;;;;;;;7.50;5.97;;;;;;;26.12;73.50;100999.00;3615876;39;20061;-66
2023/08/19 07:28:37;;;;;;;6.75;5.90;;;;;;;26.24;73.21;100991.09;3614352;39;20050;-66
2023/08/19 07:31:06;;;;;;;7.63;6.05;;;;;;;26.37;73.04;100973.84;3616059;39;20122;-66
2023/08/19 07:33:32;;;;;;;7.45;5.30;;;;;;;26.45;71.78;100998.56;3612813;39;20057;-66
2023/08/19 07:35:58;;;;;;;7.00;5.55;;;;;;;26.53;71.91;100994.84;3611756;39;20050;-66
2023/08/19 07:38:24;;;;;;;7.85;5.35;;;;;;;26.53;71.45;100995.69;3612352;39;20101;-66
2023/08/19 07:40:50;;;;;;;6.15;5.43;;;;;;;26.68;71.08;101014.94;3615423;39;20138;-66
2023/08/19 07:43:15;;;;;;;8.57;5.72;;;;;;;26.73;70.33;101011.59;3614806;39;20053;-66
2023/08/19 07:45:41;;;;;;;8.48;5.65;;;;;;;26.80;70.80;101009.75;3614342;39;20062;-66
2023/08/19 07:48:07;;;;;;;6.70;5.30;;;;;;;26.90;70.70;101031.50;3614642;39;20070;-66
2023/08/19 07:50:32;;;;;;;8.82;5.55;;;;;;;26.94;70.22;101041.94;3616426;39;20126;-66
2023/08/19 07:52:58;;;;;;;7.32;5.60;;;;;;;26.98;70.08;101037.72;3613515;39;20054;-66
2023/08/19 07:55:24;;;;;;;8.23;5.40;;;;;;;26.98;70.13;101043.25;3616731;39;20171;-66
2023/08/19 07:57:49;;;;;;;6.05;5.45;;;;;;;26.98;70.33;101042.41;3615398;39;20059;-66
2023/08/19 08:00:15;;;;;;;8.52;5.25;;;;;;;26.96;69.59;101028.81;3612333;39;20046;-66
2023/08/19 08:02:41;;;;;;;9.27;5.75;;;;;;;26.96;70.12;101022.41;3612955;39;20066;-66
2023/08/19 08:05:07;;;;;;;5.95;5.35;;;;;;;26.95;69.71;101024.31;3615655;39;20395;-66
2023/08/19 08:07:32;;;;;;;7.38;5.40;;;;;;;26.95;69.84;101035.38;3616238;39;20065;-66
2023/08/19 08:09:58;;;;;;;7.10;5.55;;;;;;;26.93;70.29;101023.69;3617599;39;20070;-66
2023/08/19 08:12:24;;;;;;;5.85;5.25;;;;;;;26.78;71.56;101029.25;3616000;39;20061;-66
2023/08/19 08:14:50;;;;;;;7.05;5.28;;;;;;;26.72;71.06;101009.88;3603849;39;20053;-66
2023/08/19 08:17:15;;;;;;;7.63;5.10;;;;;;;26.86;70.68;101033.78;3614895;39;20047;-66
2023/08/19 08:19:41;;;;;;;5.78;4.75;;;;;;;26.83;70.87;101042.44;3614402;39;20063;-66
2023/08/19 08:22:07;;;;;;;7.40;4.88;;;;;;;26.81;71.36;101039.06;3615848;39;20135;-66
2023/08/19 08:24:33;;;;;;;6.55;4.78;;;;;;;26.79;71.24;101050.25;3615918;39;20046;-66
2023/08/19 08:26:59;;;;;;;7.63;5.03;;;;;;;26.80;70.89;101056.63;3615956;39;20133;-66
2023/08/19 08:29:24;;;;;;;6.95;4.88;;;;;;;26.76;72.06;101056.16;3613712;39;20329;-66
2023/08/19 08:31:50;;;;;;;8.35;5.47;;;;;;;26.74;72.46;101063.81;3614219;39;20051;-66
2023/08/19 08:34:16;;;;;;;6.35;5.18;;;;;;;26.30;72.46;100972.94;3612982;39;20058;-66
2023/08/19 08:36:42;;;;;;;7.05;4.85;;;;;;;26.70;71.92;101091.97;3612991;39;20444;-66
2023/08/19 08:39:07;;;;;;;5.57;5.03;;;;;;;26.65;73.08;101086.19;3618235;39;20065;-66
2023/08/19 08:41:39;;;;;;;7.90;5.38;;;;;;;26.56;73.68;101094.56;3616252;39;20177;-66
2023/08/19 08:44:08;;;;;;;9.70;5.87;;;;;;;26.36;74.88;101049.34;3614597;39;20304;-66
2023/08/19 08:46:35;;;;;;;5.90;5.30;;;;;;;26.48;74.58;101086.38;3610423;39;20042;-66
2023/08/19 08:49:02;;;;;;;7.18;5.28;;;;;;;26.46;75.57;101074.69;3618015;39;20342;-66
2023/08/19 08:51:29;;;;;;;7.25;5.65;;;;;;;26.46;75.86;101082.97;3613414;39;20055;-66
2023/08/19 08:53:58;;;;;;;6.88;5.25;;;;;;;26.11;75.18;101035.88;3607749;39;20053;-66
2023/08/19 08:56:24;;;;;;;6.72;5.88;;;;;;;26.47;75.36;101101.19;3613646;39;20137;-66
2023/08/19 08:58:51;;;;;;;7.65;5.53;;;;;;;26.45;75.41;101099.69;3614390;39;20098;-66
2023/08/19 09:01:22;;;;;;;8.20;5.57;;;;;;;26.38;75.18;101088.56;3614414;39;20047;-66
2023/08/19 09:03:55;;;;;;;6.55;5.80;;;;;;;26.51;75.65;101110.81;3613540;39;20454;-66
2023/08/19 09:06:21;;;;;;;9.98;5.97;;;;;;;26.57;74.71;101120.22;3613582;39;20054;-66
2023/08/19 09:09:02;;;;;;;8.02;6.00;;;;;;;26.61;75.05;101124.34;3613563;39;20057;-66
2023/08/19 09:11:33;;;;;;;6.45;5.80;;;;;;;26.66;75.20;101120.97;3614442;39;20070;-66
2023/08/19 09:14:27;;;;;;;7.20;6.40;;;;;;;26.75;74.66;101125.34;3612358;39;20109;-66
2023/08/19 09:16:53;;;;;;;6.80;6.10;;;;;;;26.87;73.90;101126.56;3607858;39;20450;-66
2023/08/19 09:19:19;;;;;;;7.15;6.45;;;;;;;26.94;73.27;101130.22;3613957;39;20059;-66
2023/08/19 09:21:44;;;;;;;6.80;6.03;;;;;;;26.80;72.87;101089.72;3615378;39;20069;-66
2023/08/19 09:24:18;;;;;;;7.70;6.15;;;;;;;27.13;73.06;101141.69;3616795;39;20059;-66
2023/08/19 09:26:55;;;;;;;6.75;6.05;;;;;;;27.11;72.90;101121.69;3617538;39;20038;-66
2023/08/19 09:29:23;;;;;;;7.05;6.28;;;;;;;27.21;72.90;101136.94;3616032;39;20473;-66
2023/08/19 09:31:53;;;;;;;10.07;7.22;;;;;;;27.20;71.58;101132.44;3615056;39;20046;-66
2023/08/19 09:34:19;;;;;;;8.38;6.35;;;;;;;27.41;70.82;101152.84;3614128;39;20052;-66
2023/08/19 09:36:45;;;;;;;10.90;6.50;;;;;;;27.50;71.28;101162.72;3616515;39;20050;-66
2023/08/19 09:39:10;;;;;;;8.50;7.03;;;;;;;27.62;71.18;101168.53;3618858;39;20296;-66
2023/08/19 09:41:38;;;;;;;7.85;7.05;;;;;;;27.85;71.13;101173.88;3613458;39;20124;-66
2023/08/19 09:44:14;;;;;;;10.93;8.27;;;;;;;28.08;69.28;101165.34;3615933;39;20385;-66
2023/08/19 09:46:42;;;;;;;8.82;7.65;;;;;;;28.20;69.85;101150.75;3615333;39;20066;-66
2023/08/19 09:49:09;;;;;;;10.60;7.40;;;;;;;28.66;68.16;101188.03;3613281;39;20062;-66
2023/08/19 09:51:35;;;;;;;7.68;6.72;;;;;;;28.87;67.74;101193.47;3612787;39;20069;-67
2023/08/19 09:54:10;;;;;;;7.75;7.05;;;;;;;28.94;66.78;101199.03;3614410;39;20039;-66
2023/08/19 09:56:36;;;;;;;9.07;8.13;;;;;;;28.89;65.82;101202.44;3606755;39;20276;-66
2023/08/19 09:59:02;;;;;;;9.50;8.32;;;;;;;28.83;65.64;101207.91;3614117;39;20057;-66
2023/08/19 10:01:28;;;;;;;12.40;8.63;;;;;;;28.92;65.67;101224.16;3614555;39;20053;-65
2023/08/19 10:03:55;;;;;;;9.65;8.65;;;;;;;28.87;64.67;101206.47;3615368;39;20046;-66
2023/08/19 10:06:26;;;;;;;9.00;8.07;;;;;;;28.78;65.25;101216.84;3612537;39;20066;-66
2023/08/19 10:09:01;;;;;;;8.27;7.43;;;;;;;28.71;65.52;101218.72;3611883;39;20445;-66
2023/08/19 10:11:31;;;;;;;8.80;7.00;;;;;;;28.65;66.01;101219.53;3612975;39;20070;-66
2023/08/19 10:14:03;;;;;;;8.38;7.57;;;;;;;28.59;65.62;101223.13;3613427;39;20127;-66
2023/08/19 10:16:34;;;;;;;9.18;6.78;;;;;;;28.51;66.22;101217.75;3615380;39;20063;-66
2023/08/19 10:19:05;;;;;;;9.13;7.43;;;;;;;28.42;66.79;101217.91;3613837;39;20066;-66
2023/08/19 10:21:33;;;;;;;8.82;7.93;;;;;;;28.41;66.90;101216.19;3614963;39;20119;-65
2023/08/19 10:24:00;;;;;;;10.48;8.07;;;;;;;28.55;66.78;101238.44;3615562;39;20057;-66
2023/08/19 10:26:26;;;;;;;9.60;7.82;;;;;;;28.71;65.91;101240.00;3616171;39;20062;-66
2023/08/19 10:29:21;;;;;;;10.18;7.53;;;;;;;28.92;65.42;101250.94;3613761;39;20603;-66
2023/08/19 10:31:46;;;;;;;9.65;7.72;;;;;;;29.06;64.55;101243.63;3610585;39;21085;-66
2023/08/19 10:34:18;;;;;;;8.45;7.57;;;;;;;29.08;64.14;101235.94;3619081;39;20051;-66
2023/08/19 10:36:44;;;;;;;8.18;7.38;;;;;;;29.11;65.29;101243.84;3614765;39;20043;-66
2023/08/19 10:39:16;;;;;;;9.07;6.82;;;;;;;29.10;63.41;101237.44;3614413;39;20054;-66
2023/08/19 10:41:42;;;;;;;9.55;7.30;;;;;;;28.88;63.59;101214.53;3613518;39;20054;-66
2023/08/19 10:44:12;;;;;;;7.60;6.80;;;;;;;29.01;63.65;101268.28;3614983;39;20325;-66
2023/08/19 10:46:47;;;;;;;7.15;6.20;;;;;;;28.90;63.14;101264.16;3613991;39;20112;-65
2023/08/19 10:49:21;;;;;;;15.38;9.27;;;;;;;28.76;63.61;101273.44;3617440;39;20101;-66
2023/08/19 10:52:00;;;;;;;11.07;7.68;;;;;;;28.64;64.50;101270.38;3618262;39;20091;-66
2023/08/19 10:54:40;;;;;;;12.43;8.20;;;;;;;28.55;64.94;101283.53;3615843;39;20046;-65
2023/08/19 10:57:22;;;;;;;12.25;8.27;;;;;;;28.41;65.95;101292.78;3616278;39;20041;-65
2023/08/19 10:59:56;;;;;;;14.10;9.25;;;;;;;28.28;66.49;101290.72;3615227;39;20051;-65
2023/08/19 11:02:22;;;;;;;11.65;8.10;;;;;;;28.13;66.65;101289.97;3613486;39;20560;-65
2023/08/19 11:04:50;;;;;;;9.10;7.93;;;;;;;27.98;67.32;101293.66;3614683;39;20058;-65
2023/08/19 11:07:17;;;;;;;11.45;9.77;;;;;;;27.87;67.95;101296.94;3617693;39;20499;-65
2023/08/19 11:09:47;;;;;;;11.68;9.00;;;;;;;27.78;67.98;101292.59;3614578;39;20107;-66
2023/08/19 11:12:20;;;;;;;11.13;9.30;;;;;;;27.70;69.31;101301.00;3616225;39;20061;-65
2023/08/19 11:14:55;;;;;;;10.93;9.52;;;;;;;27.63;68.15;101316.66;3616742;39;20047;-66
2023/08/19 11:17:30;;;;;;;11.02;9.20;;;;;;;27.57;68.95;101345.06;3617316;39;20059;-65
2023/08/19 11:19:58;;;;;;;10.55;9.45;;;;;;;27.34;68.46;101328.59;3613845;39;20050;-65
2023/08/19 11:22:24;;;;;;;12.02;9.40;;;;;;;27.30;69.06;101350.22;3613711;39;20122;-66